Airfield :
LOGIN :

Register | Disclaimer

   EN    FR    IT 

 










Legend :    VFR   Marginal VFR   IFR   Intensive IFR   Very Intensive IFR
Visi :
Ceiling :
>= 8 km
>= 3000ft
5 to 8 km
1000 to 3000 ft
1500m to 5 km
500 to 1000 ft
800 to 1500m
200 to 500 ft
< 800m
< 200 ft
Symbols :   Thunderstorms  Fog  Heavy snow  Heavy precipitations  Wind > 20 kt
SIGMETs :     Misc.  Thunderstorms  Icing  Turbulence  Mountain Waves  Volcanic Ashes







- Airport Elevation : 242 ft
- IATA code : DUB


EIDW - Dublin

CURRENT METAR :
  • 170100Z 25009KT 210V290 9999 FEW017 SCT250 10/08 Q1013 NOSIG

EXPIRED METARs :
  • 170030Z 25009KT 210V280 9999 FEW017 SCT250 11/08 Q1013 NOSIG
  • 170000Z 25010KT 210V280 9999 FEW017 SCT250 11/08 Q1013 NOSIG
  • 162330Z 25010KT 230V290 9999 FEW017 SCT250 11/08 Q1013 NOSIG
  • 162300Z 25010KT 200V290 9999 FEW017 SCT250 11/08 Q1012 NOSIG
  • 162230Z 24007KT 200V280 9999 FEW017 SCT250 11/08 Q1012 NOSIG

TAF TAF EIDW
Valid from the 17 at 00:00 until the 18 at 00:00 UTC


162300Z 1700/1724 24009KT 9999 FEW017 SCT035
PROB30
TEMPO 1704/1708 4000 BR SCT005
BECMG 1707/1709 27010KT
PROB40
TEMPO 1708/1710 4000 BR BKN005
BECMG 1709/1711 32010KT
BECMG 1717/1719 31005KT
No reported NOTAMs for that airfield.



MET'MAP, your aeronautical weather chart ! - Copyright ORBIFLY December 2007 - Disclaimer

ORBIFLY MET'MAP TEAM :

Programming & Development : Alexandra Zaïnal
Concept & Development : Baudouin d'Aumeries
Co-Development & Prog : Marc-Olivier Méhu
Technical & hardware support : Manuel Goepfert

Contact : metmap@orbifly.com




SOURCES & CREDITS :

   NOAA